createdAt,value
2018-11-28T00:01:52.149Z,1.08
2018-11-28T00:04:25.282Z,1.04
2018-11-28T00:07:15.895Z,0.94
2018-11-28T00:09:47.943Z,0.80
2018-11-28T00:12:19.977Z,0.66
2018-11-28T00:14:52.845Z,0.48
2018-11-28T00:17:24.870Z,0.35
2018-11-28T00:19:57.782Z,0.67
2018-11-28T00:22:29.892Z,0.70
2018-11-28T00:25:02.028Z,0.74
2018-11-28T00:27:34.045Z,0.83
2018-11-28T00:30:27.581Z,0.84
2018-11-28T00:32:59.530Z,0.78
2018-11-28T00:35:31.586Z,0.76
2018-11-28T00:38:06.915Z,0.78
2018-11-28T00:40:40.882Z,0.71
2018-11-28T00:48:38.146Z,0.59
2018-11-28T01:04:17.951Z,0.32
2018-11-28T01:12:10.867Z,0.40
2018-11-28T01:20:18.124Z,0.31
2018-11-28T01:40:24.211Z,-0.24
2018-11-28T01:44:29.831Z,0.01
2018-11-28T01:48:39.362Z,0.27
2018-11-28T01:52:43.910Z,0.26
2018-11-28T01:56:44.739Z,0.24
2018-11-28T02:04:37.615Z,0.19
2018-11-28T02:32:55.524Z,-0.01
2018-11-28T02:44:24.538Z,-0.13
2018-11-28T02:51:07.026Z,-0.20
2018-11-28T02:53:39.122Z,-0.16
2018-11-28T02:56:12.904Z,-0.14
2018-11-28T02:58:44.999Z,-0.26
2018-11-28T03:01:17.125Z,-0.26
2018-11-28T03:03:49.265Z,-0.14
2018-11-28T03:06:21.273Z,-0.25
2018-11-28T03:08:53.355Z,-0.13
2018-11-28T03:11:25.447Z,-0.24
2018-11-28T03:13:57.546Z,-0.27
2018-11-28T03:16:29.631Z,-0.27
2018-11-28T03:19:01.799Z,-0.26
2018-11-28T03:21:33.949Z,-0.42
2018-11-28T03:24:06.548Z,-0.55
2018-11-28T03:26:38.591Z,-0.36
2018-11-28T03:29:10.688Z,-0.29
2018-11-28T03:31:42.736Z,-0.16
2018-11-28T03:34:14.810Z,-0.11
2018-11-28T03:36:46.874Z,-0.09
2018-11-28T03:39:18.954Z,-0.28
2018-11-28T03:41:51.321Z,-0.29
2018-11-28T03:44:23.309Z,-0.24
2018-11-28T03:46:55.371Z,-0.26
2018-11-28T03:49:27.385Z,-0.42
2018-11-28T03:51:59.510Z,-0.44
2018-11-28T03:54:31.692Z,-0.61
2018-11-28T03:57:03.758Z,-0.68
2018-11-28T03:59:35.873Z,-0.72
2018-11-28T04:02:08.305Z,-0.83
2018-11-28T04:04:40.416Z,-0.52
2018-11-28T04:07:12.529Z,-0.78
2018-11-28T04:09:44.689Z,-0.51
2018-11-28T04:12:16.731Z,-0.72
2018-11-28T04:14:48.818Z,-0.80
2018-11-28T04:17:20.895Z,-0.49
2018-11-28T04:19:52.986Z,-0.42
2018-11-28T04:22:25.104Z,-0.54
2018-11-28T04:24:57.128Z,-0.43
2018-11-28T04:27:29.151Z,-0.53
2018-11-28T04:30:01.242Z,-0.35
2018-11-28T04:32:33.710Z,-0.57
2018-11-28T04:35:06.668Z,-0.44
2018-11-28T04:37:38.914Z,-0.46
2018-11-28T04:40:13.061Z,-0.67
2018-11-28T04:42:45.523Z,-0.83
2018-11-28T04:45:19.271Z,-0.73
2018-11-28T04:47:51.932Z,-0.79
2018-11-28T04:50:24.154Z,-0.59
2018-11-28T04:52:56.246Z,-0.65
2018-11-28T04:55:28.410Z,-0.64
2018-11-28T04:58:00.498Z,-0.75
2018-11-28T05:00:32.648Z,-0.65
2018-11-28T05:03:04.750Z,-0.70
2018-11-28T05:05:36.837Z,-0.70
2018-11-28T05:08:09.210Z,-0.68
2018-11-28T05:10:41.239Z,-0.60
2018-11-28T05:13:13.371Z,-0.64
2018-11-28T05:15:45.467Z,-0.46
2018-11-28T05:18:17.488Z,-0.56
2018-11-28T05:20:50.475Z,-0.57
2018-11-28T05:23:22.567Z,-0.52
2018-11-28T05:25:54.676Z,-0.45
2018-11-28T05:28:26.776Z,-0.51
2018-11-28T05:30:58.948Z,-0.70
2018-11-28T05:33:31.037Z,-0.66
2018-11-28T05:36:03.100Z,-0.60
2018-11-28T05:38:35.278Z,-0.64
2018-11-28T05:41:07.518Z,-0.74
2018-11-28T05:43:39.781Z,-0.67
2018-11-28T05:46:12.046Z,-0.66
2018-11-28T05:48:44.143Z,-0.62
2018-11-28T05:51:16.637Z,-0.65
2018-11-28T05:53:50.398Z,-0.78
2018-11-28T05:56:23.584Z,-0.75
2018-11-28T05:58:56.883Z,-0.74
2018-11-28T06:01:29.101Z,-0.79
2018-11-28T06:04:01.296Z,-0.80
2018-11-28T06:06:33.420Z,-0.87
2018-11-28T06:09:08.221Z,-0.91
2018-11-28T06:11:41.171Z,-0.89
2018-11-28T06:14:13.291Z,-0.79
2018-11-28T06:16:45.537Z,-0.82
2018-11-28T06:19:17.648Z,-0.76
2018-11-28T06:21:49.687Z,-0.74
2018-11-28T06:24:21.804Z,-0.76
2018-11-28T06:26:53.886Z,-0.75
2018-11-28T06:29:26.057Z,-0.74
2018-11-28T06:31:58.193Z,-0.76
2018-11-28T06:34:30.294Z,-0.79
2018-11-28T06:37:02.432Z,-0.81
2018-11-28T06:39:34.514Z,-0.81
2018-11-28T06:42:07.161Z,-0.73
2018-11-28T06:44:40.272Z,-0.77
2018-11-28T06:47:12.355Z,-1.01
2018-11-28T06:49:44.581Z,-1.00
2018-11-28T06:52:16.568Z,-0.84
2018-11-28T06:54:48.745Z,-0.77
2018-11-28T06:57:20.863Z,-0.79
2018-11-28T06:59:52.882Z,-0.72
2018-11-28T07:02:24.981Z,-0.89
2018-11-28T07:04:57.113Z,-0.60
2018-11-28T07:07:31.702Z,-0.88
2018-11-28T07:10:03.818Z,-1.07
2018-11-28T07:12:35.994Z,-0.94
2018-11-28T07:15:10.380Z,-0.99
2018-11-28T07:17:43.226Z,-0.64
2018-11-28T07:20:16.698Z,-0.92
2018-11-28T07:22:48.763Z,-1.32
2018-11-28T07:25:21.408Z,-1.15
2018-11-28T07:27:53.528Z,-1.03
2018-11-28T07:30:25.937Z,-0.94
2018-11-28T07:32:59.338Z,-0.88
2018-11-28T07:35:31.488Z,-0.88
2018-11-28T07:38:03.571Z,-0.72
2018-11-28T07:40:36.072Z,-0.96
2018-11-28T07:43:15.526Z,-0.64
2018-11-28T07:45:52.677Z,-0.45
2018-11-28T07:48:24.920Z,-0.12
2018-11-28T07:50:57.918Z,-0.23
2018-11-28T07:53:30.096Z,-0.30
2018-11-28T07:56:02.217Z,-0.41
2018-11-28T07:58:34.271Z,-0.27
2018-11-28T08:01:07.003Z,-0.36
2018-11-28T08:03:39.130Z,-0.02
2018-11-28T08:06:11.224Z,0.08
2018-11-28T08:08:43.366Z,-0.24
2018-11-28T08:11:15.515Z,0.08
2018-11-28T08:13:47.604Z,0.15
2018-11-28T08:16:19.714Z,0.17
2018-11-28T08:18:51.721Z,0.35
2018-11-28T08:21:23.861Z,0.23
2018-11-28T08:23:55.958Z,0.03
2018-11-28T08:26:27.987Z,0.51
2018-11-28T08:29:00.060Z,0.00
2018-11-28T08:31:32.064Z,0.14
2018-11-28T08:34:05.050Z,0.20
2018-11-28T08:36:37.171Z,0.23
2018-11-28T08:39:10.685Z,-0.03
2018-11-28T08:41:42.810Z,0.03
2018-11-28T08:44:14.955Z,0.17
2018-11-28T08:46:49.923Z,0.41
2018-11-28T08:49:22.272Z,0.36
2018-11-28T08:51:54.452Z,0.21
2018-11-28T08:54:26.901Z,0.40
2018-11-28T08:56:59.473Z,0.19
2018-11-28T08:59:31.885Z,0.26
2018-11-28T09:02:04.051Z,0.48
2018-11-28T09:04:36.200Z,0.34
2018-11-28T09:07:08.566Z,0.10
2018-11-28T09:09:40.658Z,0.41
2018-11-28T09:12:12.746Z,0.72
2018-11-28T09:14:44.931Z,0.42
2018-11-28T09:17:17.032Z,0.41
2018-11-28T09:19:49.140Z,0.85
2018-11-28T09:22:21.230Z,0.47
2018-11-28T09:24:53.402Z,0.47
2018-11-28T09:27:25.486Z,0.64
2018-11-28T09:29:57.575Z,0.32
2018-11-28T09:32:29.798Z,0.53
2018-11-28T09:35:01.895Z,0.55
2018-11-28T09:37:33.994Z,0.68
2018-11-28T09:40:11.591Z,0.74
2018-11-28T09:42:43.812Z,0.63
2018-11-28T09:45:17.308Z,0.99
2018-11-28T09:47:49.662Z,1.20
2018-11-28T09:50:23.370Z,0.76
2018-11-28T09:52:55.575Z,0.60
2018-11-28T09:55:30.892Z,0.53
2018-11-28T09:58:03.005Z,0.84
2018-11-28T10:00:35.092Z,0.94
2018-11-28T10:03:07.238Z,1.01
2018-11-28T10:05:39.356Z,0.81
2018-11-28T10:08:11.435Z,1.09
2018-11-28T10:10:43.503Z,1.19
2018-11-28T10:13:15.866Z,0.98
2018-11-28T10:15:47.985Z,1.17
2018-11-28T10:18:20.168Z,1.18
2018-11-28T10:20:52.282Z,1.12
2018-11-28T10:23:24.331Z,1.44
2018-11-28T10:25:56.455Z,1.21
2018-11-28T10:28:28.655Z,1.50
2018-11-28T10:31:00.702Z,1.04
2018-11-28T10:33:32.983Z,0.95
2018-11-28T10:36:05.103Z,0.82
2018-11-28T10:38:37.208Z,0.88
2018-11-28T10:41:09.454Z,1.03
2018-11-28T10:43:41.596Z,1.34
2018-11-28T10:46:14.633Z,0.89
2018-11-28T10:48:46.816Z,1.04
2018-11-28T10:51:18.910Z,1.13
2018-11-28T10:53:51.038Z,1.22
2018-11-28T10:56:23.106Z,1.41
2018-11-28T10:58:55.318Z,1.17
2018-11-28T11:01:27.694Z,0.93
2018-11-28T11:04:15.310Z,0.99
2018-11-28T11:07:05.072Z,1.13
2018-11-28T11:09:54.736Z,1.01
2018-11-28T11:12:43.808Z,1.24
2018-11-28T11:15:15.943Z,1.23
2018-11-28T11:17:48.248Z,1.20
2018-11-28T11:20:20.586Z,1.36
2018-11-28T11:22:52.686Z,1.22
2018-11-28T11:25:24.895Z,1.16
2018-11-28T11:27:57.192Z,1.25
2018-11-28T11:30:29.298Z,1.34
2018-11-28T11:33:01.377Z,1.58
2018-11-28T11:35:33.498Z,1.50
2018-11-28T11:38:05.606Z,1.40
2018-11-28T11:40:37.708Z,1.19
2018-11-28T11:43:10.354Z,1.31
2018-11-28T11:45:42.454Z,1.09
2018-11-28T11:48:14.560Z,1.13
2018-11-28T11:50:46.684Z,1.21
2018-11-28T11:53:18.758Z,1.35
2018-11-28T11:55:51.064Z,1.32
2018-11-28T11:58:23.176Z,1.31
2018-11-28T12:00:55.334Z,1.55
2018-11-28T12:03:27.500Z,1.60
2018-11-28T12:06:00.860Z,1.58
2018-11-28T12:08:33.846Z,1.78
2018-11-28T12:11:07.080Z,1.80
2018-11-28T12:13:39.194Z,1.39
2018-11-28T12:16:11.404Z,1.22
2018-11-28T12:18:43.565Z,1.51
2018-11-28T12:21:15.682Z,1.45
2018-11-28T12:23:47.896Z,1.45
2018-11-28T12:26:19.991Z,1.28
2018-11-28T12:28:52.230Z,1.39
2018-11-28T12:31:24.371Z,1.17
2018-11-28T12:33:56.618Z,1.16
2018-11-28T12:36:28.733Z,1.12
2018-11-28T12:39:01.029Z,1.43
2018-11-28T12:41:34.784Z,1.36
2018-11-28T12:44:06.953Z,1.70
2018-11-28T12:46:39.066Z,1.88
2018-11-28T12:49:11.144Z,1.89
2018-11-28T12:51:43.244Z,1.31
2018-11-28T12:54:15.321Z,1.59
2018-11-28T12:56:47.486Z,1.31
2018-11-28T12:59:19.569Z,1.23
2018-11-28T13:01:51.667Z,1.55
2018-11-28T13:04:23.753Z,1.68
2018-11-28T13:06:55.844Z,1.94
2018-11-28T13:09:27.934Z,1.82
2018-11-28T13:12:00.219Z,1.48
2018-11-28T13:14:32.428Z,1.23
2018-11-28T13:17:04.552Z,1.83
2018-11-28T13:19:36.665Z,1.79
2018-11-28T13:22:08.988Z,1.49
2018-11-28T13:24:41.161Z,1.57
2018-11-28T13:27:13.290Z,1.76
2018-11-28T13:29:45.520Z,1.66
2018-11-28T13:32:17.644Z,1.34
2018-11-28T13:34:49.624Z,1.58
2018-11-28T13:37:21.740Z,1.63
2018-11-28T13:39:53.841Z,1.66
2018-11-28T13:42:25.845Z,1.83
2018-11-28T13:44:57.974Z,1.91
2018-11-28T13:47:30.056Z,2.09
2018-11-28T13:50:02.334Z,1.55
2018-11-28T13:52:34.440Z,1.82
2018-11-28T13:55:37.509Z,1.75
2018-11-28T13:57:45.099Z,1.74
2018-11-28T14:00:17.294Z,1.74
2018-11-28T14:02:49.541Z,1.72
2018-11-28T14:05:21.521Z,1.84
2018-11-28T14:07:53.797Z,1.86
2018-11-28T14:10:26.164Z,1.55
2018-11-28T14:12:58.560Z,1.68
2018-11-28T14:15:30.735Z,1.46
2018-11-28T14:18:10.682Z,1.59
2018-11-28T14:20:42.810Z,1.61
2018-11-28T14:23:15.054Z,1.48
2018-11-28T14:25:47.252Z,1.46
2018-11-28T14:28:19.421Z,1.34
2018-11-28T14:30:51.806Z,1.42
2018-11-28T14:33:23.868Z,1.11
2018-11-28T14:35:56.030Z,1.29
2018-11-28T14:38:28.098Z,1.34
2018-11-28T14:41:00.219Z,1.42
2018-11-28T14:43:32.801Z,1.32
2018-11-28T14:46:04.987Z,1.53
2018-11-28T14:48:37.175Z,1.50
2018-11-28T14:51:09.337Z,1.25
2018-11-28T14:53:41.467Z,1.57
2018-11-28T14:56:13.615Z,1.40
2018-11-28T14:58:45.747Z,0.81
2018-11-28T15:01:17.931Z,0.88
2018-11-28T15:03:50.046Z,0.99
2018-11-28T15:06:44.469Z,1.26
2018-11-28T15:09:34.118Z,1.44
2018-11-28T15:12:12.667Z,1.07
2018-11-28T15:14:45.338Z,1.06
2018-11-28T15:17:17.550Z,1.09
2018-11-28T15:19:49.645Z,1.02
2018-11-28T15:22:21.921Z,0.89
2018-11-28T15:24:53.975Z,0.83
2018-11-28T15:27:26.584Z,0.94
2018-11-28T15:29:58.873Z,1.05
2018-11-28T15:32:31.006Z,1.38
2018-11-28T15:35:03.254Z,1.56
2018-11-28T15:37:35.364Z,1.40
2018-11-28T15:40:08.260Z,1.50
2018-11-28T15:42:41.156Z,1.30
2018-11-28T15:45:13.275Z,1.05
2018-11-28T15:47:45.569Z,1.05
2018-11-28T15:50:17.884Z,1.12
2018-11-28T15:52:50.076Z,1.24
2018-11-28T15:55:22.177Z,1.48
2018-11-28T15:57:54.297Z,1.55
2018-11-28T16:00:27.123Z,1.56
2018-11-28T16:02:59.339Z,1.48
2018-11-28T16:05:31.428Z,1.40
2018-11-28T16:08:03.474Z,1.63
2018-11-28T16:10:42.678Z,1.33
2018-11-28T16:13:19.452Z,1.17
2018-11-28T16:15:56.517Z,1.10
2018-11-28T16:18:28.559Z,1.06
2018-11-28T16:21:00.664Z,1.35
2018-11-28T16:23:32.803Z,1.28
2018-11-28T16:26:04.890Z,1.58
2018-11-28T16:28:36.977Z,1.44
2018-11-28T16:31:09.062Z,1.14
2018-11-28T16:33:41.212Z,1.33
2018-11-28T16:36:13.559Z,0.95
2018-11-28T16:38:45.673Z,1.28
2018-11-28T16:41:17.895Z,1.32
2018-11-28T16:43:50.003Z,1.09
2018-11-28T16:46:22.317Z,1.24
2018-11-28T16:48:54.716Z,1.11
2018-11-28T16:51:26.796Z,1.21
2018-11-28T16:53:58.963Z,0.99
2018-11-28T16:56:31.108Z,1.37
2018-11-28T16:59:03.194Z,1.38
2018-11-28T17:01:35.302Z,1.09
2018-11-28T17:04:07.909Z,1.12
2018-11-28T17:06:40.027Z,0.99
2018-11-28T17:09:12.471Z,0.88
2018-11-28T17:11:44.617Z,1.14
2018-11-28T17:14:16.754Z,0.84
2018-11-28T17:16:49.111Z,1.00
2018-11-28T17:19:21.299Z,1.29
2018-11-28T17:21:53.474Z,1.44
2018-11-28T17:24:25.677Z,1.34
2018-11-28T17:27:04.611Z,1.17
2018-11-28T17:29:37.524Z,1.34
2018-11-28T17:32:11.298Z,1.14
2018-11-28T17:34:49.214Z,1.27
2018-11-28T17:37:21.991Z,1.00
2018-11-28T17:39:54.101Z,1.42
2018-11-28T17:42:26.195Z,1.39
2018-11-28T17:44:58.213Z,1.53
2018-11-28T17:47:30.335Z,1.49
2018-11-28T17:50:02.379Z,1.24
2018-11-28T17:52:34.550Z,1.37
2018-11-28T17:55:08.280Z,1.35
2018-11-28T17:57:40.416Z,1.33
2018-11-28T18:00:20.207Z,1.16
2018-11-28T18:02:52.280Z,1.29
2018-11-28T18:05:24.322Z,1.36
2018-11-28T18:07:56.549Z,1.56
2018-11-28T18:10:29.139Z,1.22
2018-11-28T18:13:12.653Z,1.38
2018-11-28T18:16:05.000Z,1.18
2018-11-28T18:18:37.848Z,1.10
2018-11-28T18:21:10.255Z,1.10
2018-11-28T18:23:43.321Z,0.89
2018-11-28T18:26:18.475Z,1.06
2018-11-28T18:28:50.554Z,0.87
2018-11-28T18:31:22.724Z,0.89
2018-11-28T18:33:55.608Z,0.99
2018-11-28T18:36:28.291Z,0.82
2018-11-28T18:39:00.392Z,0.71
2018-11-28T18:41:32.474Z,0.76
2018-11-28T18:44:04.898Z,1.04
2018-11-28T18:46:36.989Z,0.92
2018-11-28T18:49:09.197Z,0.95
2018-11-28T18:51:41.306Z,0.89
2018-11-28T18:54:13.433Z,0.98
2018-11-28T18:56:45.572Z,1.03
2018-11-28T18:59:17.667Z,1.02
2018-11-28T19:01:49.688Z,1.07
2018-11-28T19:04:22.081Z,0.97
2018-11-28T19:06:54.165Z,0.95
2018-11-28T19:09:43.683Z,0.63
2018-11-28T19:12:18.244Z,0.84
2018-11-28T19:14:50.452Z,1.25
2018-11-28T19:17:22.536Z,1.09
2018-11-28T19:19:54.634Z,0.97
2018-11-28T19:22:26.706Z,0.88
2018-11-28T19:24:58.822Z,0.94
2018-11-28T19:27:31.106Z,0.95
2018-11-28T19:30:03.336Z,1.17
2018-11-28T19:32:36.348Z,0.91
2018-11-28T19:35:10.102Z,0.82
2018-11-28T19:37:43.343Z,0.93
2018-11-28T19:40:27.083Z,0.94
2018-11-28T19:42:59.027Z,0.84
2018-11-28T19:45:31.009Z,0.80
2018-11-28T19:48:03.051Z,0.97
2018-11-28T19:50:36.521Z,0.87
2018-11-28T19:53:10.059Z,0.84
2018-11-28T19:55:43.106Z,0.80
2018-11-28T19:58:15.085Z,0.91
2018-11-28T20:00:48.544Z,0.83
2018-11-28T20:03:20.675Z,0.82
2018-11-28T20:05:52.812Z,0.87
2018-11-28T20:08:24.877Z,0.92
2018-11-28T20:10:57.121Z,0.63
2018-11-28T20:13:29.334Z,0.87
2018-11-28T20:16:01.545Z,0.67
2018-11-28T20:18:33.620Z,0.79
2018-11-28T20:21:05.737Z,0.74
2018-11-28T20:23:37.812Z,0.56
2018-11-28T20:26:09.940Z,0.64
2018-11-28T20:28:42.361Z,0.80
2018-11-28T20:31:14.412Z,0.75
2018-11-28T20:33:46.617Z,0.65
2018-11-28T20:36:18.708Z,0.50
2018-11-28T20:38:50.782Z,0.83
2018-11-28T20:41:22.904Z,0.79
2018-11-28T20:43:54.992Z,0.50
2018-11-28T20:46:27.098Z,0.61
2018-11-28T20:48:59.287Z,0.87
2018-11-28T20:51:31.342Z,0.91
2018-11-28T20:54:04.962Z,0.91
2018-11-28T20:56:37.732Z,0.82
2018-11-28T20:59:09.824Z,0.57
2018-11-28T21:01:41.995Z,0.42
2018-11-28T21:04:14.192Z,0.51
2018-11-28T21:06:46.318Z,0.60
2018-11-28T21:09:18.432Z,0.60
2018-11-28T21:11:50.686Z,0.93
2018-11-28T21:14:22.790Z,0.74
2018-11-28T21:16:54.949Z,0.78
2018-11-28T21:19:27.129Z,0.62
2018-11-28T21:21:59.239Z,0.77
2018-11-28T21:24:31.320Z,0.97
2018-11-28T21:27:03.473Z,0.82
2018-11-28T21:29:35.438Z,1.06
2018-11-28T21:32:07.621Z,0.96
2018-11-28T21:34:39.836Z,0.99
2018-11-28T21:37:11.918Z,1.03
2018-11-28T21:39:50.555Z,0.90
2018-11-28T21:42:22.658Z,0.37
2018-11-28T21:44:54.816Z,0.73
2018-11-28T21:47:26.936Z,0.85
2018-11-28T21:49:59.029Z,0.78
2018-11-28T21:52:31.706Z,1.13
2018-11-28T21:55:03.798Z,0.42
2018-11-28T21:57:35.901Z,0.67
2018-11-28T22:00:28.584Z,0.65
2018-11-28T22:03:00.774Z,0.76
2018-11-28T22:05:32.880Z,0.91
2018-11-28T22:08:05.212Z,0.86
2018-11-28T22:10:37.280Z,0.57
2018-11-28T22:13:09.386Z,0.44
2018-11-28T22:15:41.469Z,0.70
2018-11-28T22:18:13.567Z,0.60
2018-11-28T22:20:45.686Z,0.44
2018-11-28T22:23:17.761Z,0.60
2018-11-28T22:25:49.929Z,0.59
2018-11-28T22:28:22.023Z,0.58
2018-11-28T22:30:54.096Z,0.68
2018-11-28T22:33:26.323Z,0.82
2018-11-28T22:35:58.399Z,0.65
2018-11-28T22:38:30.551Z,0.75
2018-11-28T22:41:02.664Z,0.79
2018-11-28T22:43:34.764Z,0.97
2018-11-28T22:46:07.405Z,0.75
2018-11-28T22:48:39.415Z,0.93
2018-11-28T22:51:11.753Z,0.70
2018-11-28T22:53:43.849Z,0.57
2018-11-28T22:56:15.999Z,0.72
2018-11-28T22:58:48.078Z,0.50
2018-11-28T23:01:32.211Z,0.46
2018-11-28T23:04:04.334Z,0.28
2018-11-28T23:06:36.405Z,0.35
2018-11-28T23:09:10.514Z,0.31
2018-11-28T23:11:42.663Z,0.21
2018-11-28T23:14:14.777Z,0.21
2018-11-28T23:16:46.740Z,0.37
2018-11-28T23:19:18.840Z,0.24
2018-11-28T23:21:51.011Z,0.09
2018-11-28T23:24:23.246Z,0.40
2018-11-28T23:26:55.430Z,0.13
2018-11-28T23:29:27.576Z,0.36
2018-11-28T23:32:00.498Z,-0.05
2018-11-28T23:34:32.618Z,0.17
2018-11-28T23:37:04.725Z,-0.13
2018-11-28T23:39:36.897Z,-0.17
2018-11-28T23:42:09.191Z,0.03
2018-11-28T23:44:41.266Z,0.00
2018-11-28T23:47:13.364Z,0.04
2018-11-28T23:49:45.555Z,0.11
2018-11-28T23:52:17.598Z,0.25
2018-11-28T23:54:50.584Z,0.03
2018-11-28T23:57:22.654Z,0.27
2018-11-28T23:59:54.628Z,0.32
